Time;durP1;ratioP1;P1;durP2;ratioP2;P2;SDS_P1;SDS_P2;PMS_P1;PMS_P2;Temp;Humidity;BMP_temperature;BMP_pressure;BME280_temperature;BME280_humidity;BME280_pressure;Samples;Min_cycle;Max_cycle;Signal;HPM_P1;HPM_P2
2022/08/10 00:01:50;;;;;;;1.00;1.00;;;;;;;;;;5071431;28;20064;-64
2022/08/10 00:04:18;;;;;;;1.30;0.98;;;;;;;;;;5080014;28;20056;-64
2022/08/10 00:06:47;;;;;;;2.40;0.95;;;;;;;;;;5091898;28;20052;-64
2022/08/10 00:09:13;;;;;;;1.20;1.08;;;;;;;;;;5075971;28;20135;-66
2022/08/10 00:11:39;;;;;;;0.93;0.93;;;;;;;;;;5072185;28;20500;-64
2022/08/10 00:14:05;;;;;;;0.95;0.95;;;;;;;;;;5072107;28;20056;-69
2022/08/10 00:16:32;;;;;;;1.25;1.15;;;;;;;;;;5075018;28;20056;-64
2022/08/10 00:18:58;;;;;;;2.75;1.08;;;;;;;;;;5071657;28;20052;-64
2022/08/10 00:21:24;;;;;;;1.15;1.05;;;;;;;;;;5079904;28;20061;-63
2022/08/10 00:23:52;;;;;;;0.90;0.90;;;;;;;;;;5071741;28;20510;-64
2022/08/10 00:26:18;;;;;;;1.30;1.20;;;;;;;;;;5071959;28;20147;-64
2022/08/10 00:28:47;;;;;;;1.20;1.10;;;;;;;;;;5082129;28;20053;-64
2022/08/10 00:31:13;;;;;;;1.45;1.30;;;;;;;;;;5077230;28;20053;-64
2022/08/10 00:33:39;;;;;;;1.77;1.35;;;;;;;;;;5092605;28;20052;-64
2022/08/10 00:36:06;;;;;;;1.85;1.30;;;;;;;;;;5091883;28;20135;-64
2022/08/10 00:38:35;;;;;;;2.53;1.85;;;;;;;;;;5091224;28;20506;-64
2022/08/10 00:41:01;;;;;;;2.28;1.63;;;;;;;;;;5092503;28;20618;-64
2022/08/10 00:43:28;;;;;;;2.15;1.50;;;;;;;;;;5090834;28;20547;-63
2022/08/10 00:45:54;;;;;;;1.30;1.20;;;;;;;;;;5071765;28;20080;-64
2022/08/10 00:48:26;;;;;;;1.77;1.40;;;;;;;;;;5074648;28;20064;-64
2022/08/10 00:50:53;;;;;;;1.38;1.20;;;;;;;;;;5087438;28;20052;-64
2022/08/10 00:53:19;;;;;;;2.42;1.10;;;;;;;;;;5091095;28;20063;-64
2022/08/10 00:55:46;;;;;;;2.55;1.60;;;;;;;;;;5091722;28;20083;-64
2022/08/10 00:58:33;;;;;;;1.42;1.33;;;;;;;;;;5090305;28;20052;-64
2022/08/10 01:00:59;;;;;;;1.40;1.30;;;;;;;;;;5091838;28;20048;-63
2022/08/10 01:03:25;;;;;;;1.90;1.50;;;;;;;;;;5090752;28;20119;-63
2022/08/10 01:06:12;;;;;;;2.22;1.38;;;;;;;;;;5091190;28;20057;-63
2022/08/10 01:08:50;;;;;;;1.70;1.25;;;;;;;;;;5076319;28;20055;-63
2022/08/10 01:11:25;;;;;;;0.90;0.90;;;;;;;;;;5090915;28;20052;-64
2022/08/10 01:14:27;;;;;;;1.63;1.50;;;;;;;;;;5091032;28;20060;-66
2022/08/10 01:16:59;;;;;;;2.13;1.40;;;;;;;;;;5091116;28;20730;-63
2022/08/10 01:19:41;;;;;;;1.20;1.10;;;;;;;;;;5088218;28;20063;-64
2022/08/10 01:22:27;;;;;;;1.20;1.10;;;;;;;;;;5071362;28;20057;-64
2022/08/10 01:25:09;;;;;;;1.27;1.17;;;;;;;;;;5087270;28;21020;-64
2022/08/10 01:27:41;;;;;;;1.40;1.30;;;;;;;;;;5081004;28;20113;-64
2022/08/10 01:30:12;;;;;;;1.42;1.33;;;;;;;;;;5091391;28;20055;-64
2022/08/10 01:32:44;;;;;;;1.75;1.17;;;;;;;;;;5090779;28;20061;-64
2022/08/10 01:35:13;;;;;;;1.50;1.40;;;;;;;;;;5092503;28;20056;-64
2022/08/10 01:37:47;;;;;;;2.90;1.50;;;;;;;;;;5086331;28;20576;-64
2022/08/10 01:40:21;;;;;;;1.52;1.42;;;;;;;;;;5082371;28;20087;-64
2022/08/10 01:42:48;;;;;;;1.60;1.50;;;;;;;;;;5095087;28;20056;-64
2022/08/10 01:45:16;;;;;;;2.42;1.50;;;;;;;;;;5106899;28;20044;-64
2022/08/10 01:50:29;;;;;;;4.30;3.13;;;;;;;;;;5096343;28;20060;-63
2022/08/10 01:53:02;;;;;;;1.33;1.20;;;;;;;;;;5093824;28;20075;-65
2022/08/10 01:55:29;;;;;;;1.55;1.38;;;;;;;;;;5094503;28;20519;-63
2022/08/10 01:57:56;;;;;;;1.73;1.23;;;;;;;;;;5094493;28;20617;-63
2022/08/10 02:00:23;;;;;;;1.20;1.10;;;;;;;;;;5082942;28;20479;-63
2022/08/10 02:02:51;;;;;;;1.85;1.65;;;;;;;;;;5072790;28;20057;-63
2022/08/10 02:05:18;;;;;;;1.58;1.40;;;;;;;;;;5074217;28;20447;-64
2022/08/10 02:07:45;;;;;;;2.15;1.40;;;;;;;;;;5074505;28;20053;-64
2022/08/10 02:10:13;;;;;;;1.73;1.63;;;;;;;;;;5074871;28;20163;-64
2022/08/10 02:12:42;;;;;;;1.50;1.40;;;;;;;;;;5083435;28;20059;-64
2022/08/10 02:15:11;;;;;;;2.28;1.50;;;;;;;;;;5073968;28;20053;-65
2022/08/10 02:17:39;;;;;;;2.88;1.30;;;;;;;;;;5074188;28;20045;-63
2022/08/10 02:20:26;;;;;;;1.77;1.30;;;;;;;;;;5084260;28;20122;-64
2022/08/10 02:22:59;;;;;;;3.67;2.05;;;;;;;;;;5094250;28;21001;-64
2022/08/10 02:25:26;;;;;;;2.05;1.73;;;;;;;;;;5087669;28;20515;-64
2022/08/10 02:28:08;;;;;;;1.67;1.58;;;;;;;;;;5073600;28;20056;-64
2022/08/10 02:30:35;;;;;;;2.60;1.52;;;;;;;;;;5077141;28;20497;-64
2022/08/10 02:33:02;;;;;;;1.77;1.67;;;;;;;;;;5093079;28;20054;-64
2022/08/10 02:35:30;;;;;;;1.55;1.40;;;;;;;;;;5082519;28;20049;-64
2022/08/10 02:38:19;;;;;;;2.00;1.58;;;;;;;;;;5073670;28;20049;-64
2022/08/10 02:40:48;;;;;;;2.90;1.75;;;;;;;;;;5080321;28;20510;-64
2022/08/10 02:43:37;;;;;;;3.60;1.70;;;;;;;;;;5078809;28;20049;-63
2022/08/10 02:46:27;;;;;;;1.70;1.60;;;;;;;;;;5094131;28;20056;-64
2022/08/10 02:48:57;;;;;;;2.90;2.08;;;;;;;;;;5093977;28;20135;-63
2022/08/10 02:51:26;;;;;;;1.98;1.60;;;;;;;;;;5092315;28;20056;-64
2022/08/10 02:54:20;;;;;;;2.47;2.10;;;;;;;;;;5078346;28;20068;-64
2022/08/10 02:56:53;;;;;;;2.75;2.03;;;;;;;;;;5082835;28;20135;-64
2022/08/10 02:59:24;;;;;;;3.25;2.08;;;;;;;;;;5073307;28;20051;-64
2022/08/10 03:01:53;;;;;;;2.55;1.98;;;;;;;;;;5083420;28;20056;-63
2022/08/10 03:04:22;;;;;;;2.15;1.88;;;;;;;;;;5092900;28;20056;-64
2022/08/10 03:07:10;;;;;;;3.30;1.88;;;;;;;;;;5086617;28;20052;-63
2022/08/10 03:09:37;;;;;;;2.85;1.88;;;;;;;;;;5073351;28;20057;-64
2022/08/10 03:12:05;;;;;;;2.03;1.83;;;;;;;;;;5076257;28;20057;-64
2022/08/10 03:14:52;;;;;;;5.55;3.15;;;;;;;;;;5072971;28;20064;-64
2022/08/10 03:17:19;;;;;;;2.85;2.08;;;;;;;;;;5073325;28;20132;-64
2022/08/10 03:19:46;;;;;;;3.50;2.00;;;;;;;;;;5086570;28;20071;-64
2022/08/10 03:22:33;;;;;;;2.92;2.30;;;;;;;;;;5084919;28;20048;-64
2022/08/10 03:25:00;;;;;;;2.55;2.30;;;;;;;;;;5080315;28;20057;-64
2022/08/10 03:27:27;;;;;;;2.35;2.15;;;;;;;;;;5087659;28;20048;-64
2022/08/10 03:29:54;;;;;;;3.33;2.50;;;;;;;;;;5092540;28;21076;-64
2022/08/10 03:32:42;;;;;;;2.40;2.10;;;;;;;;;;5093292;28;20052;-64
2022/08/10 03:35:10;;;;;;;2.58;2.33;;;;;;;;;;5092205;28;20385;-64
2022/08/10 03:37:36;;;;;;;3.38;2.55;;;;;;;;;;5088054;28;20048;-63
2022/08/10 03:40:04;;;;;;;4.95;3.30;;;;;;;;;;5092682;28;20053;-64
2022/08/10 03:42:31;;;;;;;4.68;2.78;;;;;;;;;;5093470;28;20386;-64
2022/08/10 03:44:57;;;;;;;2.97;2.65;;;;;;;;;;5093146;28;20083;-64
2022/08/10 03:47:27;;;;;;;3.97;2.95;;;;;;;;;;5084919;28;20053;-64
2022/08/10 03:49:54;;;;;;;4.22;2.78;;;;;;;;;;5073190;28;20179;-64
2022/08/10 03:52:21;;;;;;;2.95;2.65;;;;;;;;;;5073183;28;20084;-64
2022/08/10 03:54:50;;;;;;;3.95;2.97;;;;;;;;;;5072246;28;20053;-64
2022/08/10 03:57:16;;;;;;;3.25;2.95;;;;;;;;;;5078935;28;20055;-65
2022/08/10 03:59:43;;;;;;;3.85;2.92;;;;;;;;;;5079827;28;20059;-64
2022/08/10 04:02:11;;;;;;;4.25;3.00;;;;;;;;;;5070958;28;20927;-64
2022/08/10 04:04:57;;;;;;;3.92;2.53;;;;;;;;;;5080140;28;20052;-64
2022/08/10 04:07:24;;;;;;;6.18;3.15;;;;;;;;;;5080902;28;20087;-64
2022/08/10 04:09:52;;;;;;;3.95;2.95;;;;;;;;;;5085698;28;20052;-64
2022/08/10 04:12:24;;;;;;;7.85;3.50;;;;;;;;;;5092288;28;20056;-64
2022/08/10 04:14:50;;;;;;;3.55;2.97;;;;;;;;;;5091177;28;20135;-64
2022/08/10 04:17:23;;;;;;;5.65;3.30;;;;;;;;;;5091261;28;20054;-64
2022/08/10 04:20:16;;;;;;;3.88;3.53;;;;;;;;;;5091460;28;20514;-64
2022/08/10 04:22:43;;;;;;;3.53;3.13;;;;;;;;;;5092432;28;20520;-64
2022/08/10 04:25:11;;;;;;;5.20;3.92;;;;;;;;;;5092522;28;20144;-65
2022/08/10 04:27:37;;;;;;;7.13;4.50;;;;;;;;;;5086979;28;20132;-64
2022/08/10 04:30:04;;;;;;;7.13;4.47;;;;;;;;;;5105281;28;20067;-65
2022/08/10 04:32:33;;;;;;;7.32;4.57;;;;;;;;;;5106140;28;20048;-64
2022/08/10 04:35:02;;;;;;;5.28;4.32;;;;;;;;;;5086830;28;20102;-64
2022/08/10 04:37:29;;;;;;;7.35;5.20;;;;;;;;;;5072155;28;20052;-65
2022/08/10 04:39:56;;;;;;;6.43;5.15;;;;;;;;;;5072044;28;20049;-64
2022/08/10 04:42:22;;;;;;;7.45;5.07;;;;;;;;;;5077262;28;20056;-65
2022/08/10 04:44:49;;;;;;;9.95;4.85;;;;;;;;;;5090592;28;20140;-65
2022/08/10 04:47:15;;;;;;;7.45;5.20;;;;;;;;;;5075696;28;20057;-65
2022/08/10 04:50:02;;;;;;;5.95;5.07;;;;;;;;;;5085825;28;20053;-64
2022/08/10 04:52:30;;;;;;;6.15;4.55;;;;;;;;;;5073069;28;20519;-65
2022/08/10 04:54:56;;;;;;;8.20;4.97;;;;;;;;;;5080846;28;20857;-65
2022/08/10 04:57:23;;;;;;;8.25;4.82;;;;;;;;;;5087008;28;20056;-65
2022/08/10 04:59:49;;;;;;;6.03;4.35;;;;;;;;;;5083581;28;20059;-64
2022/08/10 05:02:18;;;;;;;6.80;4.55;;;;;;;;;;5090675;28;20172;-65
2022/08/10 05:05:03;;;;;;;7.40;4.47;;;;;;;;;;5086072;28;20063;-63
2022/08/10 05:07:29;;;;;;;6.18;4.60;;;;;;;;;;5080226;28;20106;-63
2022/08/10 05:10:02;;;;;;;6.15;4.72;;;;;;;;;;5092226;28;20040;-64
2022/08/10 05:12:35;;;;;;;5.32;4.63;;;;;;;;;;5090205;28;20063;-64
2022/08/10 05:15:04;;;;;;;6.70;4.57;;;;;;;;;;5088199;28;20053;-63
2022/08/10 05:17:31;;;;;;;4.90;4.20;;;;;;;;;;5071223;28;20092;-64
2022/08/10 05:19:58;;;;;;;5.13;3.53;;;;;;;;;;5070478;28;20508;-63
2022/08/10 05:22:32;;;;;;;7.60;5.05;;;;;;;;;;5090216;28;20136;-64
2022/08/10 05:24:58;;;;;;;5.55;4.22;;;;;;;;;;5085358;28;21169;-63
2022/08/10 05:27:26;;;;;;;7.70;4.40;;;;;;;;;;5082639;28;20439;-63
2022/08/10 05:29:52;;;;;;;6.28;5.05;;;;;;;;;;5089339;28;20060;-63
2022/08/10 05:32:27;;;;;;;5.35;4.38;;;;;;;;;;5075558;28;20060;-63
2022/08/10 05:34:54;;;;;;;10.25;4.75;;;;;;;;;;5077164;28;20973;-64
2022/08/10 05:37:21;;;;;;;6.00;4.88;;;;;;;;;;5090756;28;20057;-63
2022/08/10 05:40:07;;;;;;;7.25;4.93;;;;;;;;;;5077872;28;20420;-63
2022/08/10 05:42:34;;;;;;;6.28;5.00;;;;;;;;;;5072603;28;20045;-63
2022/08/10 05:45:01;;;;;;;7.25;4.80;;;;;;;;;;5071925;28;20084;-63
2022/08/10 05:47:27;;;;;;;6.13;4.90;;;;;;;;;;5086161;28;20930;-63
2022/08/10 05:50:14;;;;;;;5.40;4.47;;;;;;;;;;5072936;28;20049;-63
2022/08/10 05:52:41;;;;;;;6.88;4.70;;;;;;;;;;5082587;28;20083;-64
2022/08/10 05:55:07;;;;;;;7.15;4.85;;;;;;;;;;5089691;28;20067;-65
2022/08/10 05:57:35;;;;;;;8.65;5.60;;;;;;;;;;5089373;27;20056;-64
2022/08/10 06:00:05;;;;;;;8.05;4.65;;;;;;;;;;5089875;28;20058;-65
2022/08/10 06:02:54;;;;;;;10.27;5.05;;;;;;;;;;5074509;27;20064;-64
2022/08/10 06:05:29;;;;;;;7.78;5.13;;;;;;;;;;5077388;28;20053;-66
2022/08/10 06:07:55;;;;;;;6.30;4.78;;;;;;;;;;5070651;28;20053;-66
2022/08/10 06:10:22;;;;;;;8.50;5.13;;;;;;;;;;5073310;28;20583;-65
2022/08/10 06:15:57;;;;;;;8.27;4.55;;;;;;;;;;5089765;28;20579;-66
2022/08/10 06:18:24;;;;;;;7.13;4.20;;;;;;;;;;5070712;28;20492;-65
2022/08/10 06:20:50;;;;;;;6.53;5.28;;;;;;;;;;5087609;28;20087;-69
2022/08/10 06:23:17;;;;;;;8.25;5.35;;;;;;;;;;5090284;28;20484;-69
2022/08/10 06:25:43;;;;;;;7.10;5.85;;;;;;;;;;5092006;28;20144;-68
2022/08/10 06:28:31;;;;;;;6.38;4.80;;;;;;;;;;5081329;28;20049;-69
2022/08/10 06:30:59;;;;;;;7.78;5.22;;;;;;;;;;5081000;28;20176;-70
2022/08/10 06:33:29;;;;;;;5.90;5.20;;;;;;;;;;5105379;28;20052;-70
2022/08/10 06:35:58;;;;;;;9.70;5.18;;;;;;;;;;5112930;27;20098;-70
2022/08/10 06:38:25;;;;;;;11.43;4.95;;;;;;;;;;5081483;28;20500;-70
2022/08/10 06:40:54;;;;;;;7.53;4.53;;;;;;;;;;5091993;28;20052;-69
2022/08/10 06:43:22;;;;;;;7.80;4.78;;;;;;;;;;5076961;28;20135;-68
2022/08/10 06:45:52;;;;;;;6.45;4.82;;;;;;;;;;5083828;28;20062;-69
2022/08/10 06:48:34;;;;;;;6.63;5.45;;;;;;;;;;5093844;28;20092;-69
2022/08/10 06:51:02;;;;;;;7.82;6.47;;;;;;;;;;5093801;28;20606;-69
2022/08/10 06:53:44;;;;;;;6.68;4.93;;;;;;;;;;5093628;28;20056;-70
2022/08/10 06:56:21;;;;;;;7.18;4.90;;;;;;;;;;5089923;28;20053;-69
2022/08/10 06:59:15;;;;;;;5.65;4.68;;;;;;;;;;5073713;28;20471;-70
2022/08/10 07:01:52;;;;;;;6.10;5.07;;;;;;;;;;5074076;28;20052;-68
2022/08/10 07:04:28;;;;;;;8.40;4.90;;;;;;;;;;5083621;28;20128;-70
2022/08/10 07:07:00;;;;;;;6.05;5.05;;;;;;;;;;5084810;28;20057;-68
2022/08/10 07:09:27;;;;;;;6.05;4.35;;;;;;;;;;5073448;28;20526;-69
2022/08/10 07:11:54;;;;;;;5.35;4.22;;;;;;;;;;5076286;28;20057;-69
2022/08/10 07:14:22;;;;;;;8.85;5.05;;;;;;;;;;5083678;28;20075;-69
2022/08/10 07:16:49;;;;;;;5.28;4.13;;;;;;;;;;5093480;28;20049;-70
2022/08/10 07:19:16;;;;;;;7.90;3.75;;;;;;;;;;5093484;28;20053;-70
2022/08/10 07:21:43;;;;;;;5.07;4.20;;;;;;;;;;5093323;28;20135;-70
2022/08/10 07:24:11;;;;;;;6.20;4.07;;;;;;;;;;5087530;28;20057;-69
2022/08/10 07:26:41;;;;;;;6.75;4.00;;;;;;;;;;5093381;28;20048;-69
2022/08/10 07:29:08;;;;;;;5.70;4.05;;;;;;;;;;5093272;28;20591;-70
2022/08/10 07:31:52;;;;;;;5.82;4.47;;;;;;;;;;5092102;28;20052;-68
2022/08/10 07:34:24;;;;;;;7.70;4.38;;;;;;;;;;5093739;28;20087;-68
2022/08/10 07:36:57;;;;;;;8.27;4.60;;;;;;;;;;5093512;28;20564;-69
2022/08/10 07:39:27;;;;;;;4.45;3.30;;;;;;;;;;5092616;28;20055;-69
2022/08/10 07:42:14;;;;;;;6.90;4.05;;;;;;;;;;5092697;28;20059;-69
2022/08/10 07:44:41;;;;;;;7.45;4.57;;;;;;;;;;5092941;28;20513;-68
2022/08/10 07:47:09;;;;;;;5.07;3.63;;;;;;;;;;5093462;28;20079;-68
2022/08/10 07:49:37;;;;;;;4.65;3.92;;;;;;;;;;5092464;28;20060;-68
2022/08/10 07:52:09;;;;;;;4.55;3.92;;;;;;;;;;5085509;28;20045;-69
2022/08/10 07:54:44;;;;;;;4.82;3.72;;;;;;;;;;5071361;28;20056;-69
2022/08/10 07:57:15;;;;;;;6.00;3.47;;;;;;;;;;5072993;28;20053;-70
2022/08/10 08:00:08;;;;;;;3.88;3.38;;;;;;;;;;5092947;28;20084;-70
2022/08/10 08:02:36;;;;;;;7.43;3.92;;;;;;;;;;5089935;27;20063;-69
2022/08/10 08:05:06;;;;;;;5.65;3.63;;;;;;;;;;5082849;28;20515;-70
2022/08/10 08:07:33;;;;;;;4.45;3.70;;;;;;;;;;5092135;28;20518;-69
2022/08/10 08:10:00;;;;;;;4.80;3.35;;;;;;;;;;5093110;28;20127;-68
2022/08/10 08:12:27;;;;;;;4.90;3.05;;;;;;;;;;5089286;28;20521;-65
2022/08/10 08:15:01;;;;;;;2.97;2.67;;;;;;;;;;5092769;28;20143;-70
2022/08/10 08:17:47;;;;;;;3.95;3.17;;;;;;;;;;5092524;28;20048;-69
2022/08/10 08:20:25;;;;;;;6.03;3.53;;;;;;;;;;5092462;28;20102;-69
2022/08/10 08:22:53;;;;;;;5.10;3.50;;;;;;;;;;5091419;28;20603;-69
2022/08/10 08:25:40;;;;;;;4.85;3.20;;;;;;;;;;5091692;28;20060;-70
2022/08/10 08:28:08;;;;;;;3.33;3.03;;;;;;;;;;5091203;28;20049;-69
2022/08/10 08:30:35;;;;;;;4.35;2.90;;;;;;;;;;5092825;28;20059;-69
2022/08/10 08:33:02;;;;;;;4.63;3.40;;;;;;;;;;5086171;28;20055;-69
2022/08/10 08:35:29;;;;;;;4.47;3.05;;;;;;;;;;5092932;28;20136;-69
2022/08/10 08:37:56;;;;;;;3.92;2.78;;;;;;;;;;5090955;28;20076;-69
2022/08/10 08:40:46;;;;;;;6.05;2.97;;;;;;;;;;5087007;28;20503;-69
2022/08/10 08:43:22;;;;;;;5.18;3.35;;;;;;;;;;5076404;28;20063;-68
2022/08/10 08:45:51;;;;;;;5.90;3.13;;;;;;;;;;5071657;28;20056;-67
2022/08/10 08:48:46;;;;;;;7.05;3.60;;;;;;;;;;5071853;28;20148;-68
2022/08/10 08:51:17;;;;;;;5.13;2.85;;;;;;;;;;5071899;28;20049;-68
2022/08/10 08:54:03;;;;;;;6.90;2.97;;;;;;;;;;5082275;28;20486;-67
2022/08/10 08:56:36;;;;;;;4.38;3.10;;;;;;;;;;5091272;28;20144;-68
2022/08/10 08:59:02;;;;;;;4.40;2.70;;;;;;;;;;5091274;28;20063;-67
2022/08/10 09:01:48;;;;;;;4.07;2.88;;;;;;;;;;5091410;28;20135;-66
2022/08/10 09:04:15;;;;;;;4.60;2.60;;;;;;;;;;5070623;28;20052;-66
2022/08/10 09:07:07;;;;;;;3.92;2.83;;;;;;;;;;5072309;28;20053;-69
2022/08/10 09:09:53;;;;;;;;;;;;;;;;;;5092488;27;20056;-68
2022/08/10 09:12:28;;;;;;;4.38;3.13;;;;;;;;;;5074204;28;43539;-69
2022/08/10 09:14:57;;;;;;;2.50;2.10;;;;;;;;;;5071516;28;20144;-67
2022/08/10 09:17:44;;;;;;;2.80;2.13;;;;;;;;;;5071436;28;20049;-68
2022/08/10 09:20:15;;;;;;;5.32;2.78;;;;;;;;;;5071046;28;20053;-68
2022/08/10 09:22:51;;;;;;;5.05;2.50;;;;;;;;;;5071500;28;20053;-68
2022/08/10 09:25:24;;;;;;;3.42;2.20;;;;;;;;;;5082678;28;20430;-69
2022/08/10 09:28:13;;;;;;;3.92;2.25;;;;;;;;;;5074853;28;20517;-68
2022/08/10 09:30:45;;;;;;;4.10;2.38;;;;;;;;;;5090950;28;20131;-68
2022/08/10 09:33:50;;;;;;;3.35;2.20;;;;;;;;;;5090777;28;20557;-68
2022/08/10 09:36:55;;;;;;;5.82;2.47;;;;;;;;;;5077879;28;20048;-69
2022/08/10 09:39:25;;;;;;;3.45;2.08;;;;;;;;;;5085375;28;20053;-68
2022/08/10 09:42:23;;;;;;;4.55;2.10;;;;;;;;;;5091091;28;20064;-68
2022/08/10 09:44:49;;;;;;;4.20;2.00;;;;;;;;;;5089840;28;20048;-68
2022/08/10 09:47:30;;;;;;;2.47;1.85;;;;;;;;;;5090008;28;20049;-68
2022/08/10 09:50:22;;;;;;;4.03;2.13;;;;;;;;;;5091985;28;20167;-68
2022/08/10 09:52:48;;;;;;;2.35;1.80;;;;;;;;;;5081284;28;20115;-68
2022/08/10 09:55:36;;;;;;;3.90;1.90;;;;;;;;;;5073775;28;20080;-68
2022/08/10 09:58:34;;;;;;;2.72;1.90;;;;;;;;;;5074543;28;20049;-67
2022/08/10 10:01:20;;;;;;;1.58;1.42;;;;;;;;;;5078809;28;20054;-68
2022/08/10 10:04:06;;;;;;;2.58;1.80;;;;;;;;;;5097806;28;20056;-68
2022/08/10 10:06:38;;;;;;;3.42;1.67;;;;;;;;;;5114619;28;20064;-68
2022/08/10 10:09:10;;;;;;;2.58;1.88;;;;;;;;;;5115410;28;20052;-69
2022/08/10 10:11:55;;;;;;;2.85;1.67;;;;;;;;;;5114792;28;20090;-70
2022/08/10 10:15:19;;;;;;;6.43;1.90;;;;;;;;;;5086544;28;20060;-69
2022/08/10 10:17:36;;;;;;;1.63;1.52;;;;;;;;;;5094643;28;20052;-69
2022/08/10 10:20:09;;;;;;;2.08;1.58;;;;;;;;;;5094362;28;20057;-68
2022/08/10 10:22:43;;;;;;;2.17;1.70;;;;;;;;;;5087646;28;20080;-68
2022/08/10 10:25:19;;;;;;;2.58;1.60;;;;;;;;;;5094248;28;20053;-68
2022/08/10 10:27:52;;;;;;;2.67;1.50;;;;;;;;;;5086874;28;20956;-69
2022/08/10 10:30:18;;;;;;;2.47;1.77;;;;;;;;;;5072923;28;20049;-69
2022/08/10 10:33:04;;;;;;;1.98;1.52;;;;;;;;;;5093003;27;20052;-69
2022/08/10 10:35:35;;;;;;;2.60;1.60;;;;;;;;;;5087618;28;20147;-69
2022/08/10 10:38:02;;;;;;;1.83;1.42;;;;;;;;;;5080981;28;20440;-69
2022/08/10 10:40:52;;;;;;;2.17;1.70;;;;;;;;;;5091576;28;20183;-69
2022/08/10 10:43:18;;;;;;;2.58;1.30;;;;;;;;;;5086197;28;20044;-69
2022/08/10 10:46:10;;;;;;;3.15;1.42;;;;;;;;;;5106732;28;20147;-69
2022/08/10 10:48:40;;;;;;;4.75;2.83;;;;;;;;;;5109909;28;20053;-69
2022/08/10 10:51:11;;;;;;;2.33;1.60;;;;;;;;;;5092794;28;20051;-70
2022/08/10 10:53:40;;;;;;;4.47;1.58;;;;;;;;;;5087832;28;20580;-69
2022/08/10 10:56:15;;;;;;;3.50;1.33;;;;;;;;;;5092629;28;20048;-69
2022/08/10 10:59:00;;;;;;;2.78;1.13;;;;;;;;;;5093779;28;20122;-70
2022/08/10 11:01:51;;;;;;;4.70;1.23;;;;;;;;;;5090030;27;20053;-69
2022/08/10 11:04:29;;;;;;;1.10;1.00;;;;;;;;;;5082202;28;20534;-69
2022/08/10 11:06:59;;;;;;;2.38;1.50;;;;;;;;;;5073638;28;20530;-70
2022/08/10 11:09:29;;;;;;;1.50;1.20;;;;;;;;;;5073686;28;20053;-69
2022/08/10 11:12:16;;;;;;;2.78;1.20;;;;;;;;;;5073563;28;20053;-69
2022/08/10 11:14:53;;;;;;;5.90;1.30;;;;;;;;;;5073697;28;20052;-68
2022/08/10 11:17:25;;;;;;;2.15;1.02;;;;;;;;;;5090251;28;20048;-68
2022/08/10 11:20:01;;;;;;;1.80;0.80;;;;;;;;;;5092002;28;20053;-69
2022/08/10 11:22:38;;;;;;;1.40;0.90;;;;;;;;;;5074055;28;20132;-69
2022/08/10 11:25:09;;;;;;;2.88;1.67;;;;;;;;;;5072991;28;20132;-68
2022/08/10 11:27:47;;;;;;;1.23;0.98;;;;;;;;;;5073206;28;20132;-70
2022/08/10 11:30:18;;;;;;;1.60;0.90;;;;;;;;;;5072604;28;20574;-69
2022/08/10 11:32:53;;;;;;;0.77;0.73;;;;;;;;;;5082943;28;20139;-69
2022/08/10 11:35:32;;;;;;;1.92;0.90;;;;;;;;;;5091188;28;20080;-69
2022/08/10 11:38:11;;;;;;;1.50;1.23;;;;;;;;;;5093278;28;20060;-69
2022/08/10 11:41:08;;;;;;;2.58;1.10;;;;;;;;;;5091809;28;20098;-69
2022/08/10 11:44:20;;;;;;;0.57;0.57;;;;;;;;;;5093298;28;20055;-69
2022/08/10 11:46:52;;;;;;;1.55;0.90;;;;;;;;;;5076150;28;20063;-68
2022/08/10 11:49:25;;;;;;;1.67;0.98;;;;;;;;;;5086345;28;20071;-69
2022/08/10 11:51:54;;;;;;;2.13;1.48;;;;;;;;;;5089702;28;20137;-69
2022/08/10 11:54:20;;;;;;;3.70;1.30;;;;;;;;;;5080130;28;20055;-68
2022/08/10 11:56:48;;;;;;;2.25;1.00;;;;;;;;;;5085891;28;20456;-67
2022/08/10 12:02:05;;;;;;;2.45;1.00;;;;;;;;;;5081950;28;20510;-68
2022/08/10 12:04:33;;;;;;;1.25;0.80;;;;;;;;;;5084177;28;20052;-69
2022/08/10 12:07:03;;;;;;;1.10;0.98;;;;;;;;;;5088965;28;20098;-68
2022/08/10 12:09:50;;;;;;;1.98;1.25;;;;;;;;;;5083672;28;20262;-68
2022/08/10 12:12:41;;;;;;;1.80;1.02;;;;;;;;;;5079903;28;20060;-68
2022/08/10 12:15:11;;;;;;;1.05;0.98;;;;;;;;;;5081246;28;20529;-68
2022/08/10 12:17:46;;;;;;;0.88;0.88;;;;;;;;;;5096164;28;20067;-69
2022/08/10 12:20:40;;;;;;;2.13;0.90;;;;;;;;;;5079882;28;20063;-69
2022/08/10 12:23:09;;;;;;;0.65;0.65;;;;;;;;;;5101257;28;20102;-69
2022/08/10 12:25:54;;;;;;;1.58;1.00;;;;;;;;;;5092593;28;20084;-68
2022/08/10 12:28:28;;;;;;;1.50;0.88;;;;;;;;;;5093726;28;20102;-69
2022/08/10 12:31:16;;;;;;;0.88;0.88;;;;;;;;;;5088812;27;20056;-69
2022/08/10 12:33:54;;;;;;;2.20;1.10;;;;;;;;;;5084671;28;20052;-69
2022/08/10 12:36:32;;;;;;;1.08;0.98;;;;;;;;;;5095332;28;20048;-69
2022/08/10 12:39:17;;;;;;;1.92;1.10;;;;;;;;;;5087790;28;20054;-69
2022/08/10 12:41:56;;;;;;;6.82;1.40;;;;;;;;;;5089705;28;20514;-69
2022/08/10 12:44:33;;;;;;;1.50;1.27;;;;;;;;;;5085203;28;20048;-69
2022/08/10 12:47:20;;;;;;;0.80;0.73;;;;;;;;;;5085369;28;20543;-69
2022/08/10 12:49:56;;;;;;;1.30;0.90;;;;;;;;;;5081239;28;20140;-69
2022/08/10 12:52:57;;;;;;;1.60;0.88;;;;;;;;;;5072644;28;20503;-69
2022/08/10 12:55:24;;;;;;;1.48;0.90;;;;;;;;;;5085730;28;20058;-68
2022/08/10 12:57:53;;;;;;;0.98;0.90;;;;;;;;;;5086331;28;20049;-69
2022/08/10 13:00:25;;;;;;;1.75;1.23;;;;;;;;;;5071878;28;20053;-69
2022/08/10 13:02:52;;;;;;;1.25;1.13;;;;;;;;;;5070358;28;20053;-69
2022/08/10 13:05:20;;;;;;;1.55;1.10;;;;;;;;;;5075469;28;20059;-67
2022/08/10 13:09:07;;;;;;;2.13;1.02;;;;;;;;;;5088358;28;20048;-69
2022/08/10 13:11:03;;;;;;;1.20;1.02;;;;;;;;;;5091968;28;20053;-69
2022/08/10 13:13:50;;;;;;;1.88;1.40;;;;;;;;;;5091213;28;20900;-69
2022/08/10 13:16:20;;;;;;;1.17;1.10;;;;;;;;;;5090536;28;20056;-69
2022/08/10 13:18:46;;;;;;;3.08;1.10;;;;;;;;;;5091873;28;20055;-69
2022/08/10 13:21:15;;;;;;;1.88;1.10;;;;;;;;;;5088111;28;20508;-69
2022/08/10 13:23:55;;;;;;;3.80;1.38;;;;;;;;;;5091681;28;20052;-65
2022/08/10 13:26:33;;;;;;;1.70;1.10;;;;;;;;;;5091741;28;20059;-69
2022/08/10 13:29:02;;;;;;;1.48;1.10;;;;;;;;;;5094103;28;20058;-68
2022/08/10 13:31:41;;;;;;;1.30;1.20;;;;;;;;;;5094401;28;20083;-69
2022/08/10 13:34:27;;;;;;;3.47;1.80;;;;;;;;;;5093919;28;20491;-70
2022/08/10 13:37:12;;;;;;;1.73;1.15;;;;;;;;;;5082226;28;20063;-70
2022/08/10 13:39:40;;;;;;;3.53;1.00;;;;;;;;;;5094887;28;20251;-70
2022/08/10 13:42:26;;;;;;;1.70;1.08;;;;;;;;;;5094555;28;20139;-70
2022/08/10 13:45:03;;;;;;;6.65;1.10;;;;;;;;;;5094999;28;20045;-67
2022/08/10 13:47:31;;;;;;;1.65;0.90;;;;;;;;;;5094800;28;20617;-69
2022/08/10 13:50:18;;;;;;;1.50;1.08;;;;;;;;;;5094508;28;20083;-68
2022/08/10 13:52:49;;;;;;;7.95;1.63;;;;;;;;;;5081566;28;20056;-69
2022/08/10 13:55:19;;;;;;;2.28;1.00;;;;;;;;;;5082042;28;20136;-69
2022/08/10 13:57:47;;;;;;;2.70;1.00;;;;;;;;;;5093726;28;20052;-69
2022/08/10 14:00:14;;;;;;;2.72;1.17;;;;;;;;;;5090209;28;20458;-68
2022/08/10 14:03:03;;;;;;;0.90;0.90;;;;;;;;;;5089028;28;20052;-67
2022/08/10 14:05:32;;;;;;;3.53;0.90;;;;;;;;;;5092461;28;20058;-68
2022/08/10 14:08:01;;;;;;;0.90;0.90;;;;;;;;;;5075546;28;20591;-68
2022/08/10 14:10:32;;;;;;;1.80;1.10;;;;;;;;;;5079540;28;20056;-68
2022/08/10 14:13:19;;;;;;;1.20;1.10;;;;;;;;;;5085047;28;20049;-69
2022/08/10 14:15:48;;;;;;;4.22;1.15;;;;;;;;;;5094539;28;20135;-68
2022/08/10 14:18:16;;;;;;;1.35;1.17;;;;;;;;;;5095081;28;20139;-70
2022/08/10 14:20:43;;;;;;;3.60;1.30;;;;;;;;;;5083071;28;20053;-70
2022/08/10 14:23:12;;;;;;;3.00;1.20;;;;;;;;;;5082775;28;20080;-69
2022/08/10 14:25:49;;;;;;;0.98;0.90;;;;;;;;;;5094447;28;20059;-69
2022/08/10 14:28:18;;;;;;;0.82;0.82;;;;;;;;;;5092823;28;20599;-69
2022/08/10 14:30:48;;;;;;;2.25;0.90;;;;;;;;;;5085617;28;20088;-68
2022/08/10 14:33:16;;;;;;;1.60;0.80;;;;;;;;;;5081904;28;20056;-69
2022/08/10 14:35:43;;;;;;;0.98;0.95;;;;;;;;;;5094071;28;20055;-70
2022/08/10 14:38:32;;;;;;;1.00;0.90;;;;;;;;;;5093619;28;20140;-68
2022/08/10 14:41:00;;;;;;;1.10;1.00;;;;;;;;;;5089047;28;20062;-68
2022/08/10 14:43:31;;;;;;;2.90;0.90;;;;;;;;;;5094588;28;20476;-69
2022/08/10 14:46:05;;;;;;;4.88;1.10;;;;;;;;;;5086860;28;20161;-69
2022/08/10 14:48:37;;;;;;;2.05;0.93;;;;;;;;;;5084208;28;20053;-69
2022/08/10 14:51:04;;;;;;;1.38;0.95;;;;;;;;;;5091583;28;20415;-69
2022/08/10 14:53:34;;;;;;;4.78;1.20;;;;;;;;;;5093332;28;20139;-69
2022/08/10 14:56:06;;;;;;;1.08;0.95;;;;;;;;;;5080460;28;20059;-69
2022/08/10 14:58:35;;;;;;;1.67;1.30;;;;;;;;;;5093819;28;20259;-65
2022/08/10 15:01:04;;;;;;;0.80;0.80;;;;;;;;;;5088913;28;20139;-69
2022/08/10 15:03:32;;;;;;;1.35;0.90;;;;;;;;;;5092636;28;20048;-69
2022/08/10 15:06:20;;;;;;;4.32;1.17;;;;;;;;;;5083077;28;20057;-68
2022/08/10 15:09:04;;;;;;;1.63;0.90;;;;;;;;;;5076389;28;20053;-69
2022/08/10 15:11:46;;;;;;;1.73;1.17;;;;;;;;;;5090759;28;20056;-68
2022/08/10 15:14:35;;;;;;;1.60;1.00;;;;;;;;;;5091947;28;22099;-68
2022/08/10 15:17:28;;;;;;;1.65;1.05;;;;;;;;;;5090838;28;20051;-68
2022/08/10 15:20:03;;;;;;;2.50;1.00;;;;;;;;;;5093055;28;20052;-68
2022/08/10 15:22:44;;;;;;;5.95;0.90;;;;;;;;;;5092556;28;20049;-68
2022/08/10 15:25:11;;;;;;;1.10;0.98;;;;;;;;;;5107139;28;20561;-68
2022/08/10 15:27:45;;;;;;;1.92;1.05;;;;;;;;;;5086162;28;20049;-68
2022/08/10 15:30:22;;;;;;;1.23;1.00;;;;;;;;;;5088661;28;20056;-68
2022/08/10 15:38:58;;;;;;;0.70;0.70;;;;;;;;;;5082462;28;20064;-67